Time;durP1;ratioP1;P1;durP2;ratioP2;P2;SDS_P1;SDS_P2;PMS_P1;PMS_P2;Temp;Humidity;BMP_temperature;BMP_pressure;BME280_temperature;BME280_humidity;BME280_pressure;Samples;Min_cycle;Max_cycle;Signal;HPM_P1;HPM_P2
2022/11/25 00:01:14;;;;;;;25.10;6.37;;;9.60;99.90;;;;;;4908141;29;38237;-77
2022/11/25 00:03:42;;;;;;;27.87;5.30;;;9.50;99.90;;;;;;4913141;29;48963;-79
2022/11/25 00:06:18;;;;;;;26.23;5.50;;;9.50;99.90;;;;;;4897815;29;36371;-79
2022/11/25 00:08:46;;;;;;;30.63;6.60;;;9.40;99.90;;;;;;4914434;28;39595;-79
2022/11/25 00:11:14;;;;;;;30.47;6.00;;;9.40;99.90;;;;;;4902557;29;37232;-79
2022/11/25 00:13:42;;;;;;;24.07;6.27;;;9.40;99.90;;;;;;4893782;29;38583;-78
2022/11/25 00:16:11;;;;;;;20.77;5.27;;;9.30;99.90;;;;;;4888788;29;37690;-79
2022/11/25 00:18:37;;;;;;;32.73;6.60;;;9.30;99.90;;;;;;4891230;29;39735;-78
2022/11/25 00:21:09;;;;;;;28.37;6.33;;;9.30;99.90;;;;;;4890468;29;38935;-78
2022/11/25 00:23:36;;;;;;;20.58;6.38;;;9.30;99.90;;;;;;4888692;29;47056;-78
2022/11/25 00:26:11;;;;;;;22.53;7.27;;;9.30;99.90;;;;;;4889721;29;35466;-78
2022/11/25 00:28:38;;;;;;;29.63;7.43;;;9.30;99.90;;;;;;4898495;28;47101;-78
2022/11/25 00:31:18;;;;;;;27.13;6.90;;;9.40;99.90;;;;;;4886351;29;39436;-78
2022/11/25 00:33:45;;;;;;;29.27;6.80;;;9.40;99.90;;;;;;4904329;28;38945;-78
2022/11/25 00:36:24;;;;;;;25.47;7.13;;;9.40;99.90;;;;;;4901634;29;39098;-78
2022/11/25 00:39:03;;;;;;;22.57;7.20;;;9.50;99.90;;;;;;4904343;29;39179;-78
2022/11/25 00:44:35;;;;;;;30.13;8.03;;;9.50;99.90;;;;;;4888701;29;38609;-78
2022/11/25 00:47:02;;;;;;;21.60;7.07;;;9.60;99.90;;;;;;4890222;29;36817;-78
2022/11/25 00:49:29;;;;;;;27.27;6.53;;;9.60;99.90;;;;;;4888031;29;46741;-78
2022/11/25 00:51:55;;;;;;;26.10;8.03;;;9.70;99.90;;;;;;4889907;29;39852;-78
2022/11/25 00:54:21;;;;;;;21.57;7.17;;;9.60;99.90;;;;;;4902978;29;38414;-78
2022/11/25 00:56:48;;;;;;;29.57;6.57;;;9.70;99.90;;;;;;4882795;29;37798;-79
2022/11/25 00:59:14;;;;;;;29.50;7.60;;;9.70;99.90;;;;;;4887327;29;38881;-78
2022/11/25 01:01:41;;;;;;;24.13;6.87;;;9.70;99.90;;;;;;4899916;29;37177;-78
2022/11/25 01:04:07;;;;;;;24.67;6.50;;;9.70;99.90;;;;;;4894958;29;38961;-78
2022/11/25 01:06:34;;;;;;;26.80;6.23;;;9.70;99.90;;;;;;4894892;29;36045;-79
2022/11/25 01:09:00;;;;;;;25.53;5.87;;;9.70;99.90;;;;;;4905961;29;38058;-78
2022/11/25 01:11:26;;;;;;;31.43;6.70;;;9.70;99.90;;;;;;4888292;29;38096;-78
2022/11/25 01:13:55;;;;;;;31.57;5.90;;;9.80;99.90;;;;;;4887154;29;37776;-78
2022/11/25 01:16:22;;;;;;;26.67;4.90;;;9.70;99.90;;;;;;4887904;29;35640;-78
2022/11/25 01:18:49;;;;;;;29.17;5.27;;;9.80;99.90;;;;;;4887085;29;38980;-78
2022/11/25 01:21:18;;;;;;;27.60;4.83;;;9.80;99.90;;;;;;4886839;29;38101;-78
2022/11/25 01:23:45;;;;;;;19.10;4.03;;;9.80;99.90;;;;;;4886544;29;38875;-78
2022/11/25 01:26:14;;;;;;;28.83;4.73;;;9.80;99.90;;;;;;4890445;29;36857;-78
2022/11/25 01:28:40;;;;;;;26.33;4.80;;;9.70;99.90;;;;;;4892850;28;39075;-80
2022/11/25 01:31:15;;;;;;;27.83;4.63;;;9.80;99.90;;;;;;4893072;29;38843;-79
2022/11/25 01:33:42;;;;;;;20.73;4.13;;;9.80;99.90;;;;;;4901461;29;37032;-78
2022/11/25 01:36:12;;;;;;;16.97;4.00;;;9.80;99.90;;;;;;4896276;29;36083;-77
2022/11/25 01:38:39;;;;;;;21.53;4.60;;;9.80;99.90;;;;;;4887221;29;39658;-77
2022/11/25 01:41:10;;;;;;;20.27;3.90;;;9.80;99.90;;;;;;4891397;29;37914;-77
2022/11/25 01:43:37;;;;;;;17.73;3.80;;;9.80;99.90;;;;;;4891837;29;38813;-78
2022/11/25 01:46:03;;;;;;;19.67;4.30;;;9.80;99.90;;;;;;4892170;29;38318;-77
2022/11/25 01:48:57;;;;;;;17.03;3.23;;;9.80;99.90;;;;;;4906984;29;39281;-77
2022/11/25 01:51:27;;;;;;;19.80;3.93;;;9.80;99.90;;;;;;4905898;29;38518;-78
2022/11/25 01:53:58;;;;;;;20.63;4.47;;;9.70;99.90;;;;;;4905082;28;38676;-78
2022/11/25 01:56:27;;;;;;;15.97;3.30;;;9.70;99.90;;;;;;4892366;29;36878;-79
2022/11/25 01:58:54;;;;;;;16.57;4.03;;;9.70;99.90;;;;;;4888891;28;38576;-78
2022/11/25 02:03:58;;;;;;;22.37;3.47;;;9.70;99.90;;;;;;4404650;23;20049;-80
2022/11/25 02:06:27;;;;;;;13.10;3.50;;;9.70;99.90;;;;;;4885979;29;36716;-79
2022/11/25 02:09:05;;;;;;;21.33;3.70;;;9.70;99.90;;;;;;4876187;29;37557;-78
2022/11/25 02:11:35;;;;;;;14.63;3.40;;;9.70;99.90;;;;;;4887695;29;47047;-79
2022/11/25 02:14:02;;;;;;;15.47;3.83;;;9.60;99.90;;;;;;4882875;29;39533;-78
2022/11/25 02:16:28;;;;;;;16.13;3.50;;;9.60;99.90;;;;;;4872606;29;48258;-78
2022/11/25 02:18:54;;;;;;;19.60;3.67;;;9.50;99.90;;;;;;4869718;29;37935;-79
2022/11/25 02:21:31;;;;;;;13.90;3.00;;;9.60;99.90;;;;;;4879391;29;39271;-78
2022/11/25 02:24:28;;;;;;;12.27;2.87;;;9.50;99.90;;;;;;4883458;29;37857;-79
2022/11/25 02:26:54;;;;;;;20.00;3.40;;;9.50;99.90;;;;;;4890195;29;48843;-78
2022/11/25 02:29:20;;;;;;;21.57;4.40;;;9.50;99.90;;;;;;4884713;29;40211;-78
2022/11/25 02:31:49;;;;;;;13.63;2.40;;;9.50;99.90;;;;;;4869859;29;39651;-76
2022/11/25 02:34:16;;;;;;;16.87;3.17;;;9.50;99.90;;;;;;4883965;29;38345;-76
2022/11/25 02:36:42;;;;;;;15.47;2.80;;;9.50;99.90;;;;;;4884450;29;37426;-76
2022/11/25 02:39:08;;;;;;;14.17;3.73;;;9.50;99.90;;;;;;4888355;29;38421;-74
2022/11/25 02:41:45;;;;;;;15.57;3.30;;;9.60;99.90;;;;;;4875358;29;38549;-77
2022/11/25 02:44:11;;;;;;;14.00;3.17;;;9.60;99.90;;;;;;4871826;29;37287;-77
2022/11/25 02:46:37;;;;;;;13.37;3.47;;;9.60;99.90;;;;;;4868943;29;35804;-78
2022/11/25 02:49:04;;;;;;;17.83;3.13;;;9.60;99.90;;;;;;4887586;29;38738;-77
2022/11/25 02:51:31;;;;;;;15.70;4.07;;;9.60;99.90;;;;;;4883371;29;37417;-75
2022/11/25 02:53:58;;;;;;;13.53;3.67;;;9.60;99.90;;;;;;4888180;29;38533;-77
2022/11/25 02:56:27;;;;;;;17.23;4.47;;;9.60;99.90;;;;;;4883511;29;37545;-78
2022/11/25 02:58:53;;;;;;;13.43;3.17;;;9.60;99.90;;;;;;4872286;29;38687;-77
2022/11/25 03:01:20;;;;;;;15.20;3.23;;;9.50;99.90;;;;;;4888945;29;39019;-78
2022/11/25 03:03:46;;;;;;;16.77;3.40;;;9.50;99.90;;;;;;4884014;29;38543;-78
2022/11/25 03:06:12;;;;;;;13.07;3.30;;;9.50;99.90;;;;;;4891017;29;38243;-77
2022/11/25 03:08:38;;;;;;;14.00;3.53;;;9.50;99.90;;;;;;4879074;29;37505;-77
2022/11/25 03:11:05;;;;;;;10.10;3.33;;;9.50;99.90;;;;;;4872290;29;38383;-76
2022/11/25 03:13:31;;;;;;;6.87;2.60;;;9.40;99.90;;;;;;4886555;29;37959;-78
2022/11/25 03:15:57;;;;;;;18.03;2.60;;;9.40;99.90;;;;;;4892108;29;38164;-77
2022/11/25 03:18:23;;;;;;;10.13;2.30;;;9.40;99.90;;;;;;4888667;29;38990;-78
2022/11/25 03:20:54;;;;;;;6.90;1.90;;;9.40;99.90;;;;;;4889857;29;38582;-78
2022/11/25 03:23:21;;;;;;;11.03;2.27;;;9.40;99.90;;;;;;4888090;29;37356;-78
2022/11/25 03:25:47;;;;;;;7.13;1.87;;;9.30;99.90;;;;;;4891111;29;37267;-78
2022/11/25 03:28:13;;;;;;;6.87;2.13;;;9.30;99.90;;;;;;4896199;29;40479;-77
2022/11/25 03:30:40;;;;;;;10.17;1.70;;;9.20;99.90;;;;;;4889581;29;38802;-77
2022/11/25 03:33:06;;;;;;;4.67;1.47;;;9.20;99.90;;;;;;4890094;29;38394;-77
2022/11/25 03:35:32;;;;;;;9.07;1.47;;;9.10;99.90;;;;;;4889416;29;36318;-77
2022/11/25 03:37:58;;;;;;;9.47;1.70;;;9.10;99.90;;;;;;4876206;29;37577;-78
2022/11/25 03:40:24;;;;;;;4.70;1.20;;;9.10;99.90;;;;;;4889329;29;35740;-77
2022/11/25 03:42:50;;;;;;;5.60;1.60;;;9.00;99.90;;;;;;4874640;29;37058;-78
2022/11/25 03:45:16;;;;;;;5.97;1.13;;;9.00;99.90;;;;;;4889179;29;37619;-77
2022/11/25 03:47:43;;;;;;;5.73;1.60;;;9.00;99.90;;;;;;4889850;29;38847;-77
2022/11/25 03:50:13;;;;;;;4.80;1.00;;;8.90;99.90;;;;;;4887409;29;37320;-78
2022/11/25 03:52:39;;;;;;;6.87;1.30;;;8.80;99.90;;;;;;4890609;29;37906;-78
2022/11/25 03:55:06;;;;;;;4.40;0.80;;;8.80;99.90;;;;;;4877035;29;37274;-77
2022/11/25 03:57:33;;;;;;;5.10;0.83;;;8.80;99.90;;;;;;4890472;29;38400;-79
2022/11/25 03:59:59;;;;;;;5.80;1.37;;;8.80;99.90;;;;;;4889550;29;38274;-78
2022/11/25 04:02:25;;;;;;;3.60;0.77;;;8.70;99.90;;;;;;4886696;29;38164;-77
2022/11/25 04:04:51;;;;;;;3.10;1.00;;;8.70;99.90;;;;;;4880749;29;35566;-77
2022/11/25 04:07:17;;;;;;;5.30;1.00;;;8.70;99.90;;;;;;4890240;29;38942;-76
2022/11/25 04:09:43;;;;;;;4.77;1.40;;;8.70;99.90;;;;;;4890840;29;37352;-78
2022/11/25 04:14:54;;;;;;;6.27;0.90;;;8.70;99.90;;;;;;4890502;29;38194;-78
2022/11/25 04:17:20;;;;;;;3.27;0.87;;;8.70;99.90;;;;;;4893877;29;39534;-78
2022/11/25 04:19:47;;;;;;;6.10;1.00;;;8.70;99.90;;;;;;4875995;29;38354;-78
2022/11/25 04:22:13;;;;;;;5.33;1.10;;;8.70;99.90;;;;;;4893706;29;37360;-78
2022/11/25 04:24:39;;;;;;;6.43;0.97;;;8.70;99.90;;;;;;4890817;29;36978;-78
2022/11/25 04:27:05;;;;;;;4.17;1.00;;;8.70;99.90;;;;;;4874683;29;37623;-79
2022/11/25 04:29:32;;;;;;;4.43;1.10;;;8.70;99.90;;;;;;4892264;29;38267;-79
2022/11/25 04:31:58;;;;;;;5.63;1.33;;;8.70;99.90;;;;;;4889888;29;38260;-79
2022/11/25 04:34:24;;;;;;;2.43;1.00;;;8.70;99.90;;;;;;4892564;29;36325;-78
2022/11/25 04:36:51;;;;;;;4.17;1.20;;;8.70;99.90;;;;;;4894359;29;39264;-78
2022/11/25 04:39:17;;;;;;;10.67;1.50;;;8.70;99.90;;;;;;4890521;29;39894;-78
2022/11/25 04:41:43;;;;;;;6.83;1.60;;;8.70;99.90;;;;;;4871763;29;38334;-78
2022/11/25 04:44:09;;;;;;;4.47;1.77;;;8.70;99.90;;;;;;4890469;29;38995;-78
2022/11/25 04:46:39;;;;;;;8.77;2.00;;;8.70;99.90;;;;;;4892643;29;38612;-78
2022/11/25 04:49:05;;;;;;;4.97;1.90;;;8.70;99.90;;;;;;4873663;29;37842;-77
2022/11/25 04:51:31;;;;;;;6.07;2.30;;;8.80;99.90;;;;;;4888531;29;38112;-77
2022/11/25 04:53:57;;;;;;;13.47;2.43;;;8.80;99.90;;;;;;4873269;29;36342;-77
2022/11/25 04:56:24;;;;;;;6.37;1.80;;;8.70;99.90;;;;;;4887560;29;38852;-80
2022/11/25 05:01:35;;;;;;;5.57;2.00;;;8.70;99.90;;;;;;4886592;29;49484;-77
2022/11/25 05:04:01;;;;;;;7.57;2.10;;;8.80;99.90;;;;;;4885593;29;37855;-78
2022/11/25 05:06:27;;;;;;;5.30;2.33;;;8.70;99.90;;;;;;4869703;29;46666;-77
2022/11/25 05:08:53;;;;;;;8.43;2.20;;;8.70;99.90;;;;;;4884741;29;37427;-79
2022/11/25 05:11:19;;;;;;;6.30;2.10;;;8.70;99.90;;;;;;4877041;29;36394;-77
2022/11/25 05:13:46;;;;;;;8.67;2.13;;;8.60;99.90;;;;;;4875125;29;36789;-78
2022/11/25 05:16:12;;;;;;;7.37;2.20;;;8.60;99.90;;;;;;4870080;29;38744;-78
2022/11/25 05:18:38;;;;;;;8.20;2.30;;;8.60;99.90;;;;;;4873794;29;38689;-77
2022/11/25 05:21:06;;;;;;;6.63;2.30;;;8.50;99.90;;;;;;4894048;29;38021;-76
2022/11/25 05:23:32;;;;;;;10.20;2.40;;;8.50;99.90;;;;;;4895938;29;37092;-78
2022/11/25 05:26:02;;;;;;;11.70;2.63;;;8.50;99.90;;;;;;4891104;29;39007;-78
2022/11/25 05:28:29;;;;;;;7.07;2.53;;;8.40;99.90;;;;;;4876783;29;38050;-79
2022/11/25 05:30:56;;;;;;;9.77;2.57;;;8.40;99.90;;;;;;4867191;29;38101;-79
2022/11/25 05:33:22;;;;;;;10.33;3.07;;;8.40;99.90;;;;;;4893648;29;36611;-78
2022/11/25 05:35:59;;;;;;;8.03;2.80;;;8.40;99.90;;;;;;4893946;29;39879;-78
2022/11/25 05:38:26;;;;;;;14.03;3.10;;;8.30;99.90;;;;;;4895631;29;38684;-80
2022/11/25 05:40:58;;;;;;;11.97;2.93;;;8.20;99.90;;;;;;4876366;29;36560;-79
2022/11/25 05:43:24;;;;;;;7.63;2.58;;;8.20;99.90;;;;;;4879031;29;37962;-79
2022/11/25 05:45:50;;;;;;;6.00;2.57;;;8.20;99.90;;;;;;4899865;29;38820;-80
2022/11/25 05:48:17;;;;;;;9.63;2.63;;;8.20;99.90;;;;;;4880875;29;37428;-79
2022/11/25 05:50:43;;;;;;;8.20;2.43;;;8.20;99.90;;;;;;4880741;29;38081;-78
2022/11/25 05:53:10;;;;;;;15.80;3.80;;;8.20;99.90;;;;;;4893585;29;39124;-79
2022/11/25 05:55:36;;;;;;;12.00;2.90;;;8.20;99.90;;;;;;4891137;29;38025;-78
2022/11/25 05:58:04;;;;;;;13.07;3.70;;;8.10;99.90;;;;;;4886036;29;39247;-76
2022/11/25 06:00:31;;;;;;;12.67;3.57;;;8.10;99.90;;;;;;4884122;29;37204;-79
2022/11/25 06:02:57;;;;;;;15.57;4.20;;;8.00;99.90;;;;;;4892117;29;37480;-79
2022/11/25 06:05:24;;;;;;;9.37;3.27;;;8.10;99.90;;;;;;4895404;29;37425;-79
2022/11/25 06:07:50;;;;;;;12.23;3.97;;;8.00;99.90;;;;;;4888176;29;38581;-76
2022/11/25 06:10:17;;;;;;;15.57;4.00;;;7.90;99.90;;;;;;4876547;29;37418;-78
2022/11/25 06:12:43;;;;;;;18.50;4.30;;;7.90;99.90;;;;;;4885740;29;37535;-78
2022/11/25 06:15:10;;;;;;;12.63;3.77;;;7.90;99.90;;;;;;4891985;29;38749;-79
2022/11/25 06:17:36;;;;;;;19.13;4.30;;;7.90;99.90;;;;;;4892677;29;39487;-79
2022/11/25 06:20:04;;;;;;;15.37;3.83;;;7.90;99.90;;;;;;4876048;29;37132;-79
2022/11/25 06:22:30;;;;;;;12.83;4.43;;;7.90;99.90;;;;;;4899173;29;47546;-79
2022/11/25 06:24:56;;;;;;;13.03;3.90;;;7.90;99.90;;;;;;4882057;29;37249;-80
2022/11/25 06:27:22;;;;;;;13.77;4.23;;;7.90;99.90;;;;;;4894103;29;39416;-78
2022/11/25 06:29:48;;;;;;;14.13;4.37;;;7.90;99.90;;;;;;4897846;29;38138;-79
2022/11/25 06:32:14;;;;;;;15.97;4.17;;;7.80;99.90;;;;;;4901490;29;35867;-79
2022/11/25 06:34:41;;;;;;;16.63;4.27;;;7.80;99.90;;;;;;4880739;29;37459;-80
2022/11/25 06:37:08;;;;;;;12.30;4.17;;;7.80;99.90;;;;;;4876109;29;38020;-77
2022/11/25 06:39:35;;;;;;;15.33;3.73;;;7.80;99.90;;;;;;4877133;29;37769;-78
2022/11/25 06:42:01;;;;;;;16.53;4.07;;;7.70;99.90;;;;;;4887850;29;38798;-78
2022/11/25 06:44:29;;;;;;;15.97;4.10;;;7.70;99.90;;;;;;4894977;29;38729;-77
2022/11/25 06:46:56;;;;;;;10.23;3.23;;;7.70;99.90;;;;;;4895323;29;37054;-78
2022/11/25 06:49:22;;;;;;;8.87;3.13;;;7.70;99.90;;;;;;4900198;29;36960;-78
2022/11/25 06:51:51;;;;;;;13.80;3.40;;;7.70;99.90;;;;;;4881564;29;35994;-79
2022/11/25 06:54:17;;;;;;;9.57;3.43;;;7.70;99.90;;;;;;4893079;29;37524;-79
2022/11/25 06:56:43;;;;;;;8.70;3.73;;;7.70;99.90;;;;;;4889835;29;37260;-81
2022/11/25 06:59:09;;;;;;;13.50;3.63;;;7.60;99.90;;;;;;4908269;29;37995;-79
2022/11/25 07:01:35;;;;;;;9.23;3.33;;;7.60;99.90;;;;;;4884563;29;35911;-79
2022/11/25 07:04:04;;;;;;;13.93;3.90;;;7.60;99.90;;;;;;4892144;29;37891;-75
2022/11/25 07:06:32;;;;;;;11.33;3.73;;;7.50;99.90;;;;;;4899351;29;37942;-81
2022/11/25 07:08:58;;;;;;;11.13;3.27;;;7.60;99.90;;;;;;4878980;29;37485;-77
2022/11/25 07:11:33;;;;;;;9.97;3.20;;;7.60;99.90;;;;;;4890683;29;36954;-77
2022/11/25 07:14:05;;;;;;;10.37;3.27;;;7.50;99.90;;;;;;4894216;29;39237;-77
2022/11/25 07:16:33;;;;;;;18.47;3.60;;;7.50;99.90;;;;;;4876409;29;48242;-76
2022/11/25 07:19:01;;;;;;;8.87;3.03;;;7.50;99.90;;;;;;4887153;29;37737;-77
2022/11/25 07:21:31;;;;;;;7.40;2.60;;;7.50;99.90;;;;;;4875397;29;38101;-77
2022/11/25 07:23:59;;;;;;;11.83;2.90;;;7.40;99.90;;;;;;4881752;29;40461;-76
2022/11/25 07:26:28;;;;;;;10.73;2.57;;;7.30;99.90;;;;;;4893668;29;37573;-77
2022/11/25 07:28:58;;;;;;;8.83;2.50;;;7.30;99.90;;;;;;4871832;29;37189;-76
2022/11/25 07:31:27;;;;;;;13.97;2.97;;;7.40;99.90;;;;;;4869660;29;36247;-77
2022/11/25 07:34:18;;;;;;;8.33;2.60;;;7.40;99.90;;;;;;4873126;29;37787;-77
2022/11/25 07:36:45;;;;;;;5.73;2.13;;;7.40;99.90;;;;;;4882245;29;47385;-77
2022/11/25 07:39:17;;;;;;;11.77;2.93;;;7.40;99.90;;;;;;4872370;29;38110;-77
2022/11/25 07:41:43;;;;;;;10.97;2.30;;;7.30;99.90;;;;;;4885757;29;37674;-76
2022/11/25 07:44:12;;;;;;;12.43;2.10;;;7.40;99.90;;;;;;4864970;29;37874;-76
2022/11/25 07:46:41;;;;;;;6.90;2.20;;;7.50;99.90;;;;;;4875807;29;36988;-77
2022/11/25 07:49:15;;;;;;;7.90;2.20;;;7.60;99.90;;;;;;4872507;29;38095;-77
2022/11/25 07:51:53;;;;;;;6.87;2.00;;;7.50;99.90;;;;;;4889524;29;35865;-78
2022/11/25 07:54:20;;;;;;;8.80;1.70;;;7.50;99.90;;;;;;4875994;29;38122;-77
2022/11/25 07:56:47;;;;;;;11.70;2.50;;;7.60;99.90;;;;;;4889304;29;38241;-77
2022/11/25 07:59:16;;;;;;;8.03;1.93;;;7.70;99.90;;;;;;4872896;29;37035;-78
2022/11/25 08:01:42;;;;;;;10.53;1.90;;;7.70;99.90;;;;;;4892576;29;37533;-78
2022/11/25 08:04:10;;;;;;;6.67;1.80;;;7.70;99.90;;;;;;4875957;29;37621;-78
2022/11/25 08:06:42;;;;;;;16.63;2.77;;;7.70;99.90;;;;;;4868725;29;39206;-78
2022/11/25 08:09:12;;;;;;;11.73;1.80;;;7.80;99.90;;;;;;4872776;29;20049;-78
2022/11/25 08:11:39;;;;;;;8.23;1.70;;;7.90;99.90;;;;;;4870189;29;36648;-78
2022/11/25 08:14:05;;;;;;;9.93;2.07;;;7.90;99.90;;;;;;4870387;29;39658;-79
2022/11/25 08:16:31;;;;;;;7.17;2.00;;;8.00;99.90;;;;;;4868834;29;37049;-78
2022/11/25 08:18:59;;;;;;;12.50;2.20;;;8.00;99.90;;;;;;4871188;29;39189;-78
2022/11/25 08:21:26;;;;;;;13.17;2.47;;;8.10;99.90;;;;;;4873731;29;37242;-80
2022/11/25 08:23:53;;;;;;;11.07;2.50;;;8.20;99.90;;;;;;4866009;29;38176;-79
2022/11/25 08:26:31;;;;;;;11.60;3.17;;;8.30;99.90;;;;;;4872540;29;37405;-79
2022/11/25 08:28:58;;;;;;;15.73;2.87;;;8.30;99.90;;;;;;4870327;29;37313;-78
2022/11/25 08:31:31;;;;;;;10.23;2.23;;;8.40;99.90;;;;;;4864477;29;36861;-79
2022/11/25 08:33:58;;;;;;;13.60;2.50;;;8.40;99.90;;;;;;4874719;29;37850;-79
2022/11/25 08:36:25;;;;;;;8.00;1.83;;;8.50;99.90;;;;;;4875764;29;38410;-79
2022/11/25 08:38:56;;;;;;;12.53;2.33;;;8.50;99.90;;;;;;4877818;29;36907;-78
2022/11/25 08:41:28;;;;;;;19.37;2.47;;;8.50;99.90;;;;;;4873229;29;37780;-78
2022/11/25 08:43:56;;;;;;;10.68;2.03;;;8.50;99.90;;;;;;4877948;29;38811;-78
2022/11/25 08:46:25;;;;;;;10.97;3.03;;;8.50;99.90;;;;;;4880178;29;38971;-79
2022/11/25 08:48:54;;;;;;;14.63;2.20;;;8.60;99.90;;;;;;4883128;29;37480;-76
2022/11/25 08:51:23;;;;;;;7.70;2.50;;;8.60;99.90;;;;;;4887507;29;35538;-79
2022/11/25 08:53:52;;;;;;;11.80;2.27;;;8.60;99.90;;;;;;4886195;29;38015;-79
2022/11/25 08:56:20;;;;;;;13.90;2.43;;;8.60;99.90;;;;;;4881767;29;39958;-79
2022/11/25 08:58:48;;;;;;;7.87;2.50;;;8.60;99.90;;;;;;4881272;29;38713;-79
2022/11/25 09:01:16;;;;;;;9.47;2.27;;;8.60;99.90;;;;;;4891428;29;36797;-78
2022/11/25 09:03:45;;;;;;;16.77;3.17;;;8.60;99.90;;;;;;4897825;29;38048;-79
2022/11/25 09:06:12;;;;;;;12.30;2.67;;;8.70;99.90;;;;;;4881297;29;38589;-78
2022/11/25 09:08:39;;;;;;;14.67;2.73;;;8.70;99.90;;;;;;4869730;29;38076;-77
2022/11/25 09:11:06;;;;;;;7.57;1.97;;;8.70;99.90;;;;;;4888015;29;38100;-77
2022/11/25 09:13:33;;;;;;;12.73;2.67;;;8.70;99.90;;;;;;4883355;29;38655;-78
2022/11/25 09:16:00;;;;;;;11.83;3.03;;;8.80;99.90;;;;;;4870948;29;37375;-77
2022/11/25 09:18:29;;;;;;;17.53;2.83;;;8.80;99.90;;;;;;4890934;29;37058;-79
2022/11/25 09:20:56;;;;;;;10.83;2.27;;;8.90;99.90;;;;;;4888857;29;37559;-79
2022/11/25 09:23:22;;;;;;;10.40;2.13;;;8.90;99.90;;;;;;4889682;29;39108;-79
2022/11/25 09:25:52;;;;;;;9.50;2.17;;;8.90;99.90;;;;;;4894253;29;38452;-79
2022/11/25 09:28:19;;;;;;;18.80;2.80;;;9.00;99.90;;;;;;4891081;29;37414;-79
2022/11/25 09:30:45;;;;;;;9.90;2.10;;;9.10;99.90;;;;;;4874695;29;36517;-79
2022/11/25 09:33:11;;;;;;;16.90;2.47;;;9.10;99.90;;;;;;4890497;29;38759;-78
2022/11/25 09:35:37;;;;;;;11.73;2.20;;;9.10;99.90;;;;;;4891004;29;38470;-78
2022/11/25 09:38:03;;;;;;;9.23;2.23;;;9.20;99.90;;;;;;4889407;29;38078;-78
2022/11/25 09:41:04;;;;;;;11.80;3.23;;;9.30;99.90;;;;;;4879102;29;36047;-80
2022/11/25 09:46:42;;;;;;;15.80;2.20;;;9.40;99.90;;;;;;4896162;29;50566;-79
2022/11/25 09:49:32;;;;;;;8.70;2.37;;;9.40;99.90;;;;;;4894044;29;38359;-78
2022/11/25 09:51:59;;;;;;;10.80;2.20;;;9.50;99.90;;;;;;4882820;29;35790;-80
2022/11/25 09:54:35;;;;;;;12.90;2.43;;;9.50;99.90;;;;;;4881680;29;37567;-79
2022/11/25 09:57:25;;;;;;;13.33;2.70;;;9.60;99.90;;;;;;4893349;29;37234;-79
2022/11/25 10:00:05;;;;;;;8.10;2.30;;;9.60;99.90;;;;;;4881535;29;46912;-79
2022/11/25 10:02:38;;;;;;;11.97;2.40;;;9.70;99.90;;;;;;4879431;29;36509;-79
2022/11/25 10:05:17;;;;;;;10.10;2.63;;;9.70;99.90;;;;;;4902557;29;38532;-79
2022/11/25 10:07:48;;;;;;;14.50;2.40;;;9.80;99.90;;;;;;4893094;29;38396;-77
2022/11/25 10:10:26;;;;;;;14.40;3.05;;;9.80;99.90;;;;;;4876920;29;37591;-78
2022/11/25 10:12:55;;;;;;;13.90;2.60;;;9.80;99.90;;;;;;4893967;29;36558;-80
2022/11/25 10:15:42;;;;;;;14.37;2.77;;;9.90;99.90;;;;;;4894841;29;37557;-79
2022/11/25 10:18:28;;;;;;;15.03;2.63;;;10.00;99.90;;;;;;4894037;29;37875;-78
2022/11/25 10:20:54;;;;;;;13.53;2.13;;;10.00;99.90;;;;;;4888974;29;36642;-76
2022/11/25 10:23:32;;;;;;;13.20;2.73;;;10.10;99.90;;;;;;4890031;29;36662;-79
2022/11/25 10:26:13;;;;;;;12.27;2.50;;;10.20;99.90;;;;;;4896262;29;39298;-81
2022/11/25 10:28:45;;;;;;;14.17;2.87;;;10.20;99.90;;;;;;4876002;29;46563;-79
2022/11/25 10:31:20;;;;;;;14.02;2.45;;;10.20;99.90;;;;;;4888940;29;38089;-78
2022/11/25 10:33:49;;;;;;;18.93;2.80;;;10.30;99.90;;;;;;4891221;29;37139;-79
2022/11/25 10:36:23;;;;;;;11.60;2.10;;;10.30;99.90;;;;;;4888178;29;38800;-78
2022/11/25 10:38:57;;;;;;;20.07;2.10;;;10.30;99.90;;;;;;4888799;29;38229;-80
2022/11/25 10:41:30;;;;;;;12.07;2.73;;;10.30;99.90;;;;;;4892152;29;39441;-79
2022/11/25 10:43:56;;;;;;;;;;;10.40;99.90;;;;;;4897452;29;36119;-77
2022/11/25 10:46:31;;;;;;;15.37;2.70;;;10.40;99.90;;;;;;4894113;29;37919;-78
2022/11/25 10:49:14;;;;;;;12.73;2.63;;;10.40;99.90;;;;;;4894907;29;39133;-79
2022/11/25 10:51:48;;;;;;;11.20;2.13;;;10.50;99.90;;;;;;4887420;29;48784;-79
2022/11/25 10:54:22;;;;;;;14.40;2.80;;;10.50;99.90;;;;;;4892284;29;38040;-79
2022/11/25 10:56:59;;;;;;;15.17;2.93;;;10.60;99.90;;;;;;4877931;29;39842;-79
2022/11/25 10:59:34;;;;;;;16.00;2.87;;;10.70;99.90;;;;;;4877106;29;38219;-79
2022/11/25 11:02:24;;;;;;;10.30;2.27;;;10.70;99.90;;;;;;4877241;29;36799;-79
2022/11/25 11:04:54;;;;;;;16.67;2.60;;;10.70;99.90;;;;;;4894337;29;49046;-79
2022/11/25 11:07:22;;;;;;;9.93;2.47;;;10.80;99.90;;;;;;4878656;29;38924;-79
2022/11/25 11:09:48;;;;;;;16.13;2.40;;;10.80;99.90;;;;;;4889564;29;39321;-79
2022/11/25 11:12:26;;;;;;;10.30;2.60;;;10.90;99.90;;;;;;4893056;29;39224;-79
2022/11/25 11:15:13;;;;;;;18.33;2.13;;;10.90;99.90;;;;;;4890421;29;36870;-80
2022/11/25 11:17:39;;;;;;;14.13;3.17;;;11.10;99.90;;;;;;4887003;29;49066;-78
2022/11/25 11:20:08;;;;;;;11.37;1.93;;;11.30;99.90;;;;;;4898942;29;40163;-79
2022/11/25 11:22:36;;;;;;;11.20;2.67;;;11.50;99.90;;;;;;4892946;29;37487;-79
2022/11/25 11:25:25;;;;;;;16.52;2.38;;;11.80;99.90;;;;;;4898318;29;36970;-79
2022/11/25 11:27:52;;;;;;;16.98;2.20;;;11.90;99.90;;;;;;4895875;29;47207;-81
2022/11/25 11:30:27;;;;;;;14.77;2.10;;;12.10;99.90;;;;;;4896840;29;38451;-79
2022/11/25 11:33:25;;;;;;;13.82;2.20;;;12.40;99.90;;;;;;4887041;29;36897;-79
2022/11/25 11:35:54;;;;;;;11.27;2.25;;;12.30;99.90;;;;;;4886558;29;47942;-81
2022/11/25 11:38:32;;;;;;;17.60;3.53;;;12.30;99.90;;;;;;4914226;29;40020;-79
2022/11/25 11:41:23;;;;;;;12.00;2.20;;;12.10;99.90;;;;;;4886096;29;39369;-80
2022/11/25 11:43:58;;;;;;;12.15;2.13;;;12.10;99.90;;;;;;4904369;29;49058;-81
2022/11/25 11:46:52;;;;;;;16.70;2.55;;;12.10;99.90;;;;;;4893010;29;36265;-80
2022/11/25 11:49:46;;;;;;;12.27;1.98;;;12.30;99.90;;;;;;4899461;29;37073;-79
2022/11/25 11:52:31;;;;;;;11.68;2.58;;;12.30;99.90;;;;;;4900746;29;37484;-80
2022/11/25 11:55:18;;;;;;;14.65;2.40;;;12.30;99.90;;;;;;4893592;29;38783;-80
2022/11/25 11:58:09;;;;;;;18.30;2.83;;;11.80;99.90;;;;;;4866584;29;46974;-80
2022/11/25 12:00:50;;;;;;;16.83;3.15;;;11.60;99.90;;;;;;4875749;29;47976;-80
2022/11/25 12:03:22;;;;;;;18.73;2.80;;;11.60;99.90;;;;;;4877850;29;37634;-79
2022/11/25 12:05:53;;;;;;;;;;;11.40;99.90;;;;;;4883975;29;37046;-80
2022/11/25 12:08:30;;;;;;;13.37;3.07;;;11.30;99.90;;;;;;4880298;29;35923;-81
2022/11/25 12:11:02;;;;;;;20.03;3.70;;;11.20;99.90;;;;;;4901943;29;37859;-80
2022/11/25 12:13:56;;;;;;;18.27;3.25;;;11.20;99.90;;;;;;4898624;29;38764;-80
2022/11/25 12:16:41;;;;;;;16.73;2.72;;;11.30;99.90;;;;;;4908915;29;38958;-81
2022/11/25 12:19:20;;;;;;;14.10;3.00;;;11.30;99.90;;;;;;4905851;29;36026;-81
2022/11/25 12:22:04;;;;;;;24.60;4.25;;;11.30;99.90;;;;;;4896713;29;38642;-80
2022/11/25 12:24:43;;;;;;;18.03;3.60;;;11.30;99.90;;;;;;4910543;29;49266;-79
2022/11/25 12:27:21;;;;;;;21.50;3.67;;;11.40;99.90;;;;;;4892322;29;38569;-80
2022/11/25 12:29:54;;;;;;;18.38;3.00;;;11.40;99.90;;;;;;4895341;29;37721;-79
2022/11/25 12:32:29;;;;;;;14.30;3.07;;;11.40;99.90;;;;;;4890316;29;40021;-80
2022/11/25 12:35:14;;;;;;;17.02;3.40;;;11.50;99.90;;;;;;4895288;29;38404;-80
2022/11/25 12:38:09;;;;;;;19.48;3.17;;;11.60;99.90;;;;;;4878818;29;46991;-80
2022/11/25 12:41:01;;;;;;;16.85;3.33;;;11.60;99.90;;;;;;4889655;29;47349;-81
2022/11/25 12:43:47;;;;;;;18.30;2.85;;;11.60;99.90;;;;;;4888332;29;37539;-80
2022/11/25 12:46:38;;;;;;;19.23;3.03;;;11.80;99.90;;;;;;4902314;29;37361;-80
2022/11/25 12:49:12;;;;;;;20.45;2.80;;;11.90;99.90;;;;;;4902071;29;37901;-80
2022/11/25 12:52:17;;;;;;;22.75;4.40;;;11.90;99.90;;;;;;4901056;29;36181;-80
2022/11/25 12:55:14;;;;;;;22.85;3.33;;;12.00;99.90;;;;;;4876961;29;46718;-80
2022/11/25 12:58:18;;;;;;;19.85;3.40;;;12.00;99.90;;;;;;4905626;29;49273;-80
2022/11/25 13:01:22;;;;;;;20.55;3.00;;;12.10;99.90;;;;;;4902735;29;48804;-80
2022/11/25 13:04:09;;;;;;;22.05;3.45;;;12.10;99.90;;;;;;4893759;29;47139;-80
2022/11/25 13:07:03;;;;;;;18.48;3.50;;;12.00;99.90;;;;;;4897701;29;49013;-80
2022/11/25 13:10:15;;;;;;;23.40;4.03;;;11.90;99.90;;;;;;4895836;29;46979;-80
2022/11/25 13:12:58;;;;;;;20.70;3.78;;;12.00;99.90;;;;;;4900538;29;48713;-81
2022/11/25 13:15:36;;;;;;;20.70;3.53;;;12.00;99.90;;;;;;4884925;29;35849;-80
2022/11/25 13:18:12;;;;;;;24.58;4.55;;;12.00;99.90;;;;;;4889389;29;38353;-80
2022/11/25 13:20:48;;;;;;;18.90;4.05;;;12.00;99.90;;;;;;4899663;29;47002;-80
2022/11/25 13:23:17;;;;;;;17.48;2.97;;;12.00;99.90;;;;;;4901871;29;38021;-80